createdAt,value
2024-01-20T00:10:45.036Z,12535.99179
2024-01-20T00:25:47.208Z,12535.99179
2024-01-20T00:40:49.361Z,12535.99179
2024-01-20T00:55:51.414Z,12535.99179
2024-01-20T01:10:53.450Z,12535.99179
2024-01-20T01:25:55.664Z,12535.99179
2024-01-20T01:40:57.837Z,12535.99179
2024-01-20T01:55:59.852Z,12535.99179
2024-01-20T02:11:01.970Z,12535.99179
2024-01-20T02:26:04.026Z,12535.99179
2024-01-20T02:41:06.139Z,12535.99179
2024-01-20T02:56:08.417Z,12535.99179
2024-01-20T03:11:10.495Z,12535.99179
2024-01-20T03:26:12.704Z,12535.99179
2024-01-20T03:41:14.794Z,12535.99179
2024-01-20T03:56:17.032Z,12535.99179
2024-01-20T04:11:19.019Z,12535.99179
2024-01-20T04:26:20.964Z,12535.99179
2024-01-20T04:41:23.051Z,12535.99179
2024-01-20T04:56:25.040Z,12535.99179
2024-01-20T05:11:27.120Z,12535.99179
2024-01-20T05:26:29.883Z,12535.99179
2024-01-20T05:41:32.631Z,12535.99179
2024-01-20T05:56:34.673Z,12535.99179
2024-01-20T06:11:36.646Z,12535.99179
2024-01-20T06:26:38.674Z,12535.99179
2024-01-20T06:41:40.798Z,12535.99179
2024-01-20T06:56:42.861Z,12535.99179
2024-01-20T07:11:44.863Z,12535.99179
2024-01-20T07:26:46.875Z,12535.99179
2024-01-20T07:41:48.898Z,12535.99179
2024-01-20T07:56:50.907Z,12535.99179
2024-01-20T08:11:53.052Z,12535.99179
2024-01-20T08:26:55.079Z,12535.99179
2024-01-20T08:41:59.007Z,12535.99179
2024-01-20T08:57:01.132Z,12535.99179
2024-01-20T09:12:03.393Z,12535.99179
2024-01-20T09:27:05.433Z,12535.99179
2024-01-20T09:42:07.594Z,12535.99179
2024-01-20T09:57:09.805Z,12535.99179
2024-01-20T10:12:11.905Z,12535.99179
2024-01-20T10:27:13.966Z,12535.99179
2024-01-20T10:42:16.082Z,12535.99179
2024-01-20T10:57:18.370Z,12535.99179
2024-01-20T11:12:20.408Z,12535.99179
2024-01-20T11:27:22.630Z,12535.99179
2024-01-20T11:42:24.636Z,12535.99179
2024-01-20T11:57:26.784Z,12535.99179
2024-01-20T12:12:28.874Z,12535.99179
2024-01-20T12:27:30.967Z,12535.99179
2024-01-20T12:42:33.274Z,12535.99179
2024-01-20T12:57:35.482Z,12535.99179
2024-01-20T13:12:37.518Z,12535.99179
2024-01-20T13:27:40.150Z,12535.99179
2024-01-20T13:42:43.736Z,12535.99179
2024-01-20T13:57:46.275Z,12535.99179
2024-01-20T14:12:48.355Z,12535.99179
2024-01-20T14:27:50.366Z,12535.99179
2024-01-20T14:42:52.598Z,12535.99179
2024-01-20T14:57:54.679Z,12535.99179
2024-01-20T15:12:56.735Z,12535.99179
2024-01-20T15:27:58.774Z,12535.99179
2024-01-20T15:43:00.741Z,12535.99179
2024-01-20T15:58:02.658Z,12535.99179
2024-01-20T16:13:12.718Z,12535.99179
2024-01-20T16:28:16.335Z,12535.99179
2024-01-20T16:43:18.306Z,12535.99179
2024-01-20T16:58:20.465Z,12535.99179
2024-01-20T17:13:22.460Z,12535.99179
2024-01-20T17:28:24.506Z,12535.99179
2024-01-20T17:43:26.682Z,12535.99179
2024-01-20T17:58:28.714Z,12535.99179
2024-01-20T18:13:31.087Z,12535.99179
2024-01-20T18:28:33.296Z,12535.99179
2024-01-20T18:43:35.592Z,12535.99179
2024-01-20T18:58:37.600Z,12535.99179
2024-01-20T19:13:39.761Z,12535.99179
2024-01-20T19:28:41.777Z,12535.99179
2024-01-20T19:43:43.844Z,12535.99179
2024-01-20T19:58:45.995Z,12535.99179
2024-01-20T20:13:47.998Z,12535.99179
2024-01-20T20:28:50.114Z,12535.99179
2024-01-20T20:43:52.300Z,12535.99179
2024-01-20T20:58:54.478Z,12535.99179
2024-01-20T21:13:56.605Z,12535.99179
2024-01-20T21:28:58.756Z,12535.99179
2024-01-20T21:44:01.662Z,12535.99179
2024-01-20T21:59:03.821Z,12535.99179
2024-01-20T22:14:05.820Z,12522.12455
2024-01-20T22:29:15.279Z,11682.14716
2024-01-20T22:44:26.143Z,10719.69755
2024-01-20T22:59:28.140Z,9809.3593
2024-01-20T23:14:30.177Z,9691.78137
2024-01-20T23:29:32.214Z,10198.19876
2024-01-20T23:44:34.225Z,10895.09202
2024-01-20T23:59:36.236Z,12264.356
